ENTCENNA

Guest
Details From ENTC - Tromso Langnes
To ENNA - BANAK
Flight Number -
Tags generated
Created
Modified
Stats Distance 127 nm / 236 km
Max Altitude 7,100 ft / 2,164 m
Waypoints 3
Social Downloads 5
Likes 0
Share VATSIM

Download

Looking for another format? Having issues loading an existing format? Contact us
Advertisement - Login to hide

Notes

Basic altitude profile: - Ascent Rate: 2500ft/min - Ascent Speed: 250kts - Cruise Altitude: 35000ft - Cruise Speed: 420kts - Descent Rate: 1500ft/min - Descent Speed: 250kts Options: - Use NATs: yes - Use PACOTS: yes - Use low airways: yes - Use high airways: no

Route

ENTC ATA ENNA

ID Type Via Altitude Latitude Longitude Leg Dist Tot Dist Heading (true) Name
O ENTC APT - 0 ft / 0 m 69.68287˚ 18.91936˚ - 0 nm - Tromso Langnes
ATA VOR - 7,100 ft / 2,164 m 69.97758˚ 23.37182˚ 93 nm 93 nm 77° / 81° ALTA VOR-DME
O ENNA APT - 0 ft / 0 m 70.06881˚ 24.97349˚ 33 nm 127 nm 80° / 81° BANAK

Altitude Profile

Advertisement - Login to hide

ENTC

Details ICAO ENTC (TOS)
Name Tromso Langnes
Region Norway
Timezone Europe/Oslo (UTC+2.0)
Stats Elevation 31 ft / 9 m (AMSL)
Location 69.682866° 18.919363°
Runways 1
Magnetic Variation 8.898° E

METAR

ENTC 220950Z 21010KT 9999 -SHRA BKN021 06/04 Q1020 TEMPO DZ BKN012 RMK WIND 2600FT 24013KT

Decode

TAF

TAF AMD TAF AMD ENTC 220845Z 2208/2306 22012KT 9999 -DZ BKN025 TEMPO 2208/2306 RA BKN014 TEMPO 2212/2306 28012KT

Decode

Departure Runways

ID Width Length Bearing (true) Bearing (mag) Surface Threshold Offset Overrun Length
01 141 ft / 43 m 7,740 ft / 2,359 m 12.19° 3.29° Asphalt 0 ft / 0 m 289 ft / 88 m
19 141 ft / 43 m 7,740 ft / 2,359 m 192.21° 183.31° Asphalt 1,227 ft / 374 m 482 ft / 147 m

ENNA

Details ICAO ENNA (LKL)
Name BANAK
Region Norway
Timezone Unknown (UTC+0.0)
Stats Elevation 25 ft / 8 m (AMSL)
Location 70.068813° 24.973489°
Runways 1
Magnetic Variation 12.488° E

METAR

ENNA 220950Z 02003KT 9999 BKN045 12/02 Q1017 RMK WIND 1800FT 29006KT

Decode

TAF

TAF TAF ENNA 220500Z 2206/2306 18008KT 9999 SCT040 BECMG 2209/2212 27012KT TEMPO 2212/2224 28015G30KT TEMPO 2300/2306 30025G40KT

Decode

Destination Runways

ID Width Length Bearing (true) Bearing (mag) Surface Threshold Offset Overrun Length
17 148 ft / 45 m 9,104 ft / 2,775 m 175.43° 162.94° Asphalt 302 ft / 92 m 0 ft / 0 m
35 148 ft / 45 m 9,104 ft / 2,775 m 355.44° 342.95° Asphalt 302 ft / 92 m 0 ft / 0 m

Approach Navaids

Runway Type Ident Frequency Range Bearing (true) Bearing (mag) Slope Elevation
17 Localiser BK 109.35 MHz 18 nm / 33 km 175.43° 162.95° - 25 ft / 8 m (AMSL)
17 DME BK 109.35 MHz 18 nm / 33 km - - - 55 ft / 17 m (AMSL)
35 Localiser BA 108.30 MHz 18 nm / 33 km 355.43° 342.94° - 25 ft / 8 m (AMSL)
35 Glidescope BA 108.30 MHz 10 nm / 19 km 355.43° 342.95° 3.50° 25 ft / 8 m (AMSL)

Popular Alternatives